MSC Arica — 9HA3320 — position and weather

sailwx.info

Track history (hours):
 
Tides and Currents Weather Stations Pressure Air Temp Water Temp Dewpoint Dewpoint Depression Visibility Wind Speed Wind Dir Waves Ship Positions

MSC Arica

Last reported at 2018-Jan-20 15:00 UTC. Time now 2018-Jan-20 15:17 UTC.
Position N 49°44' W 003°09'.

Length 299 m; draft 13 m.

Type: Cargo ship. MMSI: 229423000.

Date/timePositionNaut miles runAvg speedWind from/ knotsBaromVisibWave heightAir tempDewpointWater temp
2018-Jan-20 15:00N 49°44' W 003°09'510.5
2018-Jan-20 14:30N 49°42' W 003°16'510.5
2018-Jan-20 14:01N 49°39' W 003°23'610.6
2018-Jan-20 13:29N 49°36' W 003°30'6710.6
2018-Jan-20 07:12N 48°59' W 004°56'312.8
2018-Jan-20 06:59N 48°58' W 004°60'917.0
2018-Jan-20 06:28N 48°55' W 005°12'817.8
2018-Jan-20 06:00N 48°51' W 005°23'917.8
2018-Jan-20 05:30N 48°46' W 005°35'60817.5
2018-Jan-18 18:46N 39°17' W 010°29'516.9
2018-Jan-18 18:29N 39°12' W 010°28'817.2
2018-Jan-18 18:01N 39°04' W 010°28'816.5
2018-Jan-18 17:30N 38°56' W 010°27'816.1
2018-Jan-18 17:00N 38°48' W 010°26'916.3
2018-Jan-18 16:28N 38°39' W 010°24'715.0
2018-Jan-18 16:00N 38°32' W 010°21'714.4
2018-Jan-18 15:30N 38°25' W 010°18'714.3
2018-Jan-18 15:00N 38°19' W 010°15'714.1
2018-Jan-18 14:30N 38°13' W 010°11'713.7
2018-Jan-18 14:01N 38°07' W 010°07'713.7
2018-Jan-18 13:30N 38°01' W 010°03'612.7
2018-Jan-18 13:00N 37°55' W 009°59'612.1
2018-Jan-18 12:30N 37°50' W 009°55'612.3
2018-Jan-18 12:00N 37°45' W 009°51'611.9
2018-Jan-18 11:30N 37°39' W 009°47'610.7
2018-Jan-18 10:59N 37°34' W 009°44'510.6
2018-Jan-18 10:28N 37°29' W 009°41'510.9
2018-Jan-18 10:00N 37°25' W 009°38'510.6
2018-Jan-18 09:30N 37°20' W 009°35'910.3
2018-Jan-18 08:36N 37°12' W 009°30'4 9.8
2018-Jan-18 08:11N 37°08' W 009°27'4 9.8
2018-Jan-18 07:44N 37°04' W 009°25'3 9.8
2018-Jan-18 07:27N 37°02' W 009°23'4 9.4
2018-Jan-18 07:00N 36°58' W 009°21'5 9.6
2018-Jan-18 06:30N 36°54' W 009°19'510.1
2018-Jan-18 06:00N 36°50' W 009°15'510.3
2018-Jan-18 05:30N 36°46' W 009°10'510.3
2018-Jan-18 04:59N 36°44' W 009°04'511.0
2018-Jan-18 04:29N 36°42' W 008°58'612.2
2018-Jan-18 04:00N 36°40' W 008°51'612.7
2018-Jan-18 03:30N 36°38' W 008°43'712.8
2018-Jan-18 03:00N 36°37' W 008°36'612.9
2018-Jan-18 02:30N 36°35' W 008°28'713.1
2018-Jan-18 02:00N 36°33' W 008°20'613.1
2018-Jan-18 01:30N 36°31' W 008°12'713.2
2018-Jan-18 00:59N 36°29' W 008°04'  
Track history (hours):
 
Tides and Currents Weather Stations Pressure Air Temp Water Temp Dewpoint Dewpoint Depression Visibility Wind Speed Wind Dir Waves Ship Positions

MSC Arica

Last reported at 2018-Jan-20 15:00 UTC. Time now 2018-Jan-20 15:17 UTC.
Position N 49°44' W 003°09'.

Length 299 m; draft 13 m.

Type: Cargo ship. MMSI: 229423000.

Date/timePositionNaut miles runAvg speedWind from/ knotsBaromVisibWave heightAir tempDewpointWater temp
2018-Jan-20 15:00N 49°44' W 003°09'510.5
2018-Jan-20 14:30N 49°42' W 003°16'510.5
2018-Jan-20 14:01N 49°39' W 003°23'610.6
2018-Jan-20 13:29N 49°36' W 003°30'6710.6
2018-Jan-20 07:12N 48°59' W 004°56'312.8
2018-Jan-20 06:59N 48°58' W 004°60'917.0
2018-Jan-20 06:28N 48°55' W 005°12'817.8
2018-Jan-20 06:00N 48°51' W 005°23'917.8
2018-Jan-20 05:30N 48°46' W 005°35'60817.5
2018-Jan-18 18:46N 39°17' W 010°29'516.9
2018-Jan-18 18:29N 39°12' W 010°28'817.2
2018-Jan-18 18:01N 39°04' W 010°28'816.5
2018-Jan-18 17:30N 38°56' W 010°27'816.1
2018-Jan-18 17:00N 38°48' W 010°26'916.3
2018-Jan-18 16:28N 38°39' W 010°24'715.0
2018-Jan-18 16:00N 38°32' W 010°21'714.4
2018-Jan-18 15:30N 38°25' W 010°18'714.3
2018-Jan-18 15:00N 38°19' W 010°15'714.1
2018-Jan-18 14:30N 38°13' W 010°11'713.7
2018-Jan-18 14:01N 38°07' W 010°07'713.7
2018-Jan-18 13:30N 38°01' W 010°03'612.7
2018-Jan-18 13:00N 37°55' W 009°59'612.1
2018-Jan-18 12:30N 37°50' W 009°55'612.3
2018-Jan-18 12:00N 37°45' W 009°51'611.9
2018-Jan-18 11:30N 37°39' W 009°47'610.7
2018-Jan-18 10:59N 37°34' W 009°44'510.6
2018-Jan-18 10:28N 37°29' W 009°41'510.9
2018-Jan-18 10:00N 37°25' W 009°38'510.6
2018-Jan-18 09:30N 37°20' W 009°35'910.3
2018-Jan-18 08:36N 37°12' W 009°30'4 9.8
2018-Jan-18 08:11N 37°08' W 009°27'4 9.8
2018-Jan-18 07:44N 37°04' W 009°25'3 9.8
2018-Jan-18 07:27N 37°02' W 009°23'4 9.4
2018-Jan-18 07:00N 36°58' W 009°21'5 9.6
2018-Jan-18 06:30N 36°54' W 009°19'510.1
2018-Jan-18 06:00N 36°50' W 009°15'510.3
2018-Jan-18 05:30N 36°46' W 009°10'510.3
2018-Jan-18 04:59N 36°44' W 009°04'511.0
2018-Jan-18 04:29N 36°42' W 008°58'612.2
2018-Jan-18 04:00N 36°40' W 008°51'612.7
2018-Jan-18 03:30N 36°38' W 008°43'712.8
2018-Jan-18 03:00N 36°37' W 008°36'612.9
2018-Jan-18 02:30N 36°35' W 008°28'713.1
2018-Jan-18 02:00N 36°33' W 008°20'613.1
2018-Jan-18 01:30N 36°31' W 008°12'713.2
2018-Jan-18 00:59N 36°29' W 008°04'  

Dump ship's entire track history